Sheddsville, Vermont
Current Conditions -  °F | °C
As of 5:53 AM on Friday 28 Nov 2014 (Local Time) from KLEB Reporting Station
Light Snow Light Snow  
Wind Chill: 25°   Ceiling: 4200
Heat Index: 25°   Visibility: 5mi
Dew Point: 20°   Wind: 3mph
Humidity: 81%   Direction: 330°NNW
Pressure: 30.03"   Gusts: NA
Location:  43.4897°N, 72.4482°W
Report Text: KLEB 281053Z 33003KT 5SM -SN OVC042 M04/M07 A3003 RMK AO2 SNB47 SLP179 P0000 T10391067
Loading
Personal Weather Stations






























Interactive Weather Map New forecast layout! Learn more

10-Day Weather Forecast

Advertisements
Track Severe Weather on mobile